createdAt,value
2023-05-16T00:00:07.417Z,3.03
2023-05-16T00:05:14.438Z,3.83
2023-05-16T00:10:16.168Z,3.53
2023-05-16T00:15:18.363Z,2.85
2023-05-16T00:20:23.573Z,3.08
2023-05-16T00:25:28.701Z,3.22
2023-05-16T00:30:30.509Z,3.22
2023-05-16T00:35:34.774Z,4.38
2023-05-16T00:40:36.742Z,3.60
2023-05-16T00:45:38.732Z,3.42
2023-05-16T00:50:40.798Z,4.18
2023-05-16T00:55:44.798Z,3.45
2023-05-16T01:00:48.767Z,3.35
2023-05-16T01:05:57.539Z,3.33
2023-05-16T01:11:30.782Z,4.05
2023-05-16T01:17:03.805Z,3.45
2023-05-16T01:22:16.464Z,4.10
2023-05-16T01:27:18.652Z,3.60
2023-05-16T01:32:21.239Z,3.72
2023-05-16T01:37:36.025Z,3.50
2023-05-16T01:42:44.334Z,3.53
2023-05-16T01:47:49.256Z,3.17
2023-05-16T01:52:57.916Z,3.10
2023-05-16T01:58:04.835Z,3.00
2023-05-16T02:03:08.293Z,3.73
2023-05-16T02:08:10.106Z,2.80
2023-05-16T02:13:11.751Z,2.83
2023-05-16T02:18:13.511Z,3.30
2023-05-16T02:23:17.985Z,3.47
2023-05-16T02:28:21.925Z,2.93
2023-05-16T02:33:27.709Z,3.47
2023-05-16T02:38:29.555Z,2.73
2023-05-16T02:43:31.277Z,3.50
2023-05-16T02:48:32.903Z,3.67
2023-05-16T02:53:36.995Z,3.03
2023-05-16T02:58:38.835Z,3.87
2023-05-16T03:03:41.217Z,3.67
2023-05-16T03:08:43.348Z,3.07
2023-05-16T03:13:45.020Z,2.63
2023-05-16T03:18:49.286Z,2.67
2023-05-16T03:23:50.997Z,3.87
2023-05-16T03:28:52.728Z,3.20
2023-05-16T03:33:56.710Z,2.90
2023-05-16T03:39:01.737Z,3.25
2023-05-16T03:44:06.028Z,3.50
2023-05-16T03:49:07.732Z,3.33
2023-05-16T03:54:09.461Z,3.30
2023-05-16T03:59:15.937Z,2.93
2023-05-16T04:04:19.923Z,3.70
2023-05-16T04:09:23.767Z,3.13
2023-05-16T04:14:25.497Z,3.20
2023-05-16T04:19:27.218Z,3.07
2023-05-16T04:24:31.154Z,2.87
2023-05-16T04:29:35.900Z,3.87
2023-05-16T04:34:40.599Z,2.67
2023-05-16T04:39:42.849Z,2.70
2023-05-16T04:44:44.811Z,2.97
2023-05-16T04:49:49.049Z,2.83
2023-05-16T04:54:53.658Z,2.47
2023-05-16T04:59:55.772Z,2.30
2023-05-16T05:04:59.706Z,2.63
2023-05-16T05:10:03.626Z,1.90
2023-05-16T05:15:06.510Z,3.25
2023-05-16T05:20:11.597Z,2.63
2023-05-16T05:25:18.496Z,2.90
2023-05-16T05:30:20.225Z,2.55
2023-05-16T05:35:23.960Z,2.53
2023-05-16T05:40:25.723Z,2.88
2023-05-16T05:45:31.912Z,3.03
2023-05-16T05:50:34.160Z,3.00
2023-05-16T05:55:41.781Z,2.40
2023-05-16T06:00:43.506Z,2.90
2023-05-16T06:05:45.211Z,2.00
2023-05-16T06:10:47.581Z,2.70
2023-05-16T06:15:54.741Z,2.38
2023-05-16T06:20:59.422Z,2.42
2023-05-16T06:26:06.610Z,2.00
2023-05-16T06:31:08.395Z,2.53
2023-05-16T06:36:12.665Z,2.70
2023-05-16T06:41:16.426Z,2.40
2023-05-16T06:46:23.098Z,2.33
2023-05-16T06:51:24.914Z,1.60
2023-05-16T06:56:28.932Z,2.15
2023-05-16T07:01:33.934Z,2.30
2023-05-16T07:06:40.245Z,2.55
2023-05-16T07:11:44.487Z,2.78
2023-05-16T07:16:46.292Z,2.72
2023-05-16T07:21:48.032Z,2.08
2023-05-16T07:26:50.014Z,2.50
2023-05-16T07:31:54.222Z,2.50
2023-05-16T07:36:59.042Z,2.60
2023-05-16T07:42:00.797Z,2.40
2023-05-16T07:47:07.463Z,2.63
2023-05-16T07:52:09.322Z,2.67
2023-05-16T07:57:13.371Z,2.15
2023-05-16T08:02:17.732Z,2.28
2023-05-16T08:07:19.550Z,1.95
2023-05-16T08:12:21.349Z,2.25
2023-05-16T08:17:23.141Z,3.33
2023-05-16T08:22:30.161Z,2.22
2023-05-16T08:27:34.383Z,1.63
2023-05-16T08:32:41.914Z,1.55
2023-05-16T08:37:46.040Z,1.45
2023-05-16T08:42:55.193Z,1.30
2023-05-16T08:48:01.074Z,2.28
2023-05-16T08:53:11.488Z,1.80
2023-05-16T08:58:15.746Z,2.20
2023-05-16T09:03:25.220Z,2.08
2023-05-16T09:08:27.428Z,2.53
2023-05-16T09:13:29.231Z,2.53
2023-05-16T09:18:33.769Z,2.45
2023-05-16T09:23:37.779Z,2.90
2023-05-16T09:28:39.936Z,2.22
2023-05-16T09:33:42.476Z,1.27
2023-05-16T09:38:46.361Z,1.55
2023-05-16T09:43:50.506Z,1.58
2023-05-16T09:48:52.309Z,1.30
2023-05-16T09:53:55.695Z,1.83
2023-05-16T09:59:03.317Z,1.88
2023-05-16T10:04:14.170Z,1.33
2023-05-16T10:09:18.683Z,1.25
2023-05-16T10:14:20.883Z,1.08
2023-05-16T10:19:25.957Z,1.85
2023-05-16T10:24:37.083Z,1.58
2023-05-16T10:29:54.173Z,1.60
2023-05-16T10:34:57.175Z,1.52
2023-05-16T10:40:02.693Z,1.33
2023-05-16T10:45:20.089Z,2.08
2023-05-16T10:50:42.981Z,2.40
2023-05-16T10:55:59.653Z,2.30
2023-05-16T11:01:23.879Z,3.08
2023-05-16T11:06:43.385Z,2.80
2023-05-16T11:12:05.320Z,2.40
2023-05-16T11:17:21.696Z,2.35
2023-05-16T11:22:30.066Z,2.17
2023-05-16T11:27:39.583Z,2.72
2023-05-16T11:32:45.758Z,2.15
2023-05-16T11:37:48.064Z,2.83
2023-05-16T11:42:50.042Z,2.42
2023-05-16T11:47:54.308Z,2.70
2023-05-16T11:52:57.603Z,2.75
2023-05-16T11:58:02.736Z,2.70
2023-05-16T12:03:08.246Z,2.08
2023-05-16T12:08:12.704Z,2.10
2023-05-16T12:13:18.269Z,1.85
2023-05-16T12:18:22.458Z,2.13
2023-05-16T12:23:26.967Z,2.15
2023-05-16T12:28:37.417Z,2.63
2023-05-16T12:33:42.070Z,2.15
2023-05-16T12:38:46.999Z,2.38
2023-05-16T12:43:49.675Z,2.15
2023-05-16T12:49:02.900Z,2.75
2023-05-16T12:54:12.097Z,2.90
2023-05-16T12:59:14.567Z,2.55
2023-05-16T13:04:20.342Z,2.08
2023-05-16T13:09:29.970Z,2.53
2023-05-16T13:14:34.101Z,2.13
2023-05-16T13:19:36.617Z,2.72
2023-05-16T13:24:42.874Z,2.40
2023-05-16T13:29:44.964Z,1.77
2023-05-16T13:34:48.902Z,2.17
2023-05-16T13:39:56.072Z,2.50
2023-05-16T13:44:57.893Z,2.45
2023-05-16T13:50:03.417Z,2.80
2023-05-16T13:55:05.697Z,2.53
2023-05-16T14:05:17.614Z,1.75
2023-05-16T14:10:23.853Z,2.00
2023-05-16T14:15:25.790Z,2.20
2023-05-16T14:20:31.173Z,2.13
2023-05-16T14:25:35.382Z,3.13
2023-05-16T14:30:39.492Z,2.78
2023-05-16T14:35:41.261Z,2.65
2023-05-16T14:40:43.018Z,2.88
2023-05-16T14:45:47.056Z,3.47
2023-05-16T14:50:49.109Z,3.13
2023-05-16T14:55:50.921Z,3.53
2023-05-16T15:00:52.741Z,2.40
2023-05-16T15:05:54.954Z,3.25
2023-05-16T15:11:00.075Z,3.15
2023-05-16T15:16:04.502Z,3.50
2023-05-16T15:21:09.299Z,3.78
2023-05-16T15:26:11.709Z,3.63
2023-05-16T15:31:13.606Z,3.10
2023-05-16T15:36:15.585Z,3.50
2023-05-16T15:41:37.269Z,3.67
2023-05-16T15:46:41.766Z,2.80
2023-05-16T15:51:43.564Z,3.42
2023-05-16T15:56:45.529Z,3.50
2023-05-16T16:01:52.261Z,3.10
2023-05-16T16:06:54.348Z,3.58
2023-05-16T16:11:56.743Z,3.70
2023-05-16T16:16:59.096Z,3.63
2023-05-16T16:22:00.904Z,2.90
2023-05-16T16:27:07.242Z,3.53
2023-05-16T16:32:11.270Z,3.90
2023-05-16T16:37:13.028Z,3.22
2023-05-16T16:42:17.260Z,3.40
2023-05-16T16:47:19.558Z,2.67
2023-05-16T16:52:21.336Z,2.97
2023-05-16T16:57:25.560Z,2.78
2023-05-16T17:02:32.631Z,3.28
2023-05-16T17:07:36.776Z,2.95
2023-05-16T17:12:46.945Z,3.80
2023-05-16T17:17:49.482Z,3.63
2023-05-16T17:22:53.643Z,3.15
2023-05-16T17:28:00.769Z,4.07
2023-05-16T17:33:02.588Z,3.60
2023-05-16T17:38:06.613Z,3.97
2023-05-16T17:43:10.873Z,3.50
2023-05-16T17:48:17.501Z,4.28
2023-05-16T17:53:22.329Z,4.65
2023-05-16T17:58:29.324Z,4.63
2023-05-16T18:03:33.599Z,7.13
2023-05-16T18:08:35.507Z,4.32
2023-05-16T18:13:42.415Z,3.78
2023-05-16T18:18:44.570Z,5.35
2023-05-16T18:23:47.086Z,3.05
2023-05-16T18:28:55.944Z,3.63
2023-05-16T18:34:03.673Z,3.97
2023-05-16T18:39:05.737Z,3.55
2023-05-16T18:44:09.816Z,4.13
2023-05-16T18:49:14.078Z,3.90
2023-05-16T18:54:15.862Z,3.70
2023-05-16T18:59:18.778Z,4.60
2023-05-16T19:04:20.676Z,4.80
2023-05-16T19:09:27.110Z,4.40
2023-05-16T19:14:33.875Z,4.85
2023-05-16T19:19:37.981Z,4.60
2023-05-16T19:24:40.138Z,4.50
2023-05-16T19:29:41.999Z,4.30
2023-05-16T19:34:44.001Z,5.82
2023-05-16T19:39:45.922Z,5.32
2023-05-16T19:44:49.756Z,4.97
2023-05-16T19:49:54.544Z,5.65
2023-05-16T19:54:56.474Z,5.35
2023-05-16T20:00:00.659Z,7.00
2023-05-16T20:05:08.181Z,5.60
2023-05-16T20:10:10.450Z,6.43
2023-05-16T20:15:12.807Z,7.15
2023-05-16T20:20:14.868Z,6.20
2023-05-16T20:25:16.612Z,6.50
2023-05-16T20:30:18.780Z,6.07
2023-05-16T20:35:20.723Z,6.22
2023-05-16T20:40:23.120Z,6.43
2023-05-16T20:45:27.226Z,7.20
2023-05-16T20:50:29.588Z,7.15
2023-05-16T20:55:33.151Z,6.28
2023-05-16T21:00:40.234Z,6.32
2023-05-16T21:05:44.232Z,5.88
2023-05-16T21:10:45.944Z,6.53
2023-05-16T21:15:49.337Z,6.22
2023-05-16T21:20:51.213Z,6.97
2023-05-16T21:25:52.919Z,5.97
2023-05-16T21:30:59.131Z,6.20
2023-05-16T21:36:03.892Z,6.68
2023-05-16T21:41:08.592Z,7.10
2023-05-16T21:46:12.533Z,6.28
2023-05-16T21:51:16.579Z,6.03
2023-05-16T21:56:18.798Z,6.05
2023-05-16T22:01:22.121Z,6.07
2023-05-16T22:06:24.709Z,5.65
2023-05-16T22:11:26.516Z,5.70
2023-05-16T22:16:30.631Z,5.50
2023-05-16T22:21:37.915Z,5.50
2023-05-16T22:26:40.557Z,5.28
2023-05-16T22:31:44.741Z,5.35
2023-05-16T22:36:51.736Z,4.80
2023-05-16T22:41:57.878Z,5.47
2023-05-16T22:47:02.325Z,5.15
2023-05-16T22:52:06.439Z,5.07
2023-05-16T22:57:13.607Z,4.60
2023-05-16T23:02:15.302Z,4.78
2023-05-16T23:07:21.720Z,5.55
2023-05-16T23:12:25.240Z,4.85
2023-05-16T23:17:27.009Z,4.70
2023-05-16T23:22:28.754Z,4.93
2023-05-16T23:27:30.725Z,4.97
2023-05-16T23:32:32.437Z,4.60
2023-05-16T23:37:38.707Z,4.50
2023-05-16T23:42:42.805Z,4.90
2023-05-16T23:47:46.932Z,4.60
2023-05-16T23:52:48.692Z,4.93
2023-05-16T23:57:50.382Z,4.33
